createdAt,value
2018-09-07T00:00:57.262Z,996.20
2018-09-07T00:01:57.286Z,996.22
2018-09-07T00:02:57.324Z,996.21
2018-09-07T00:03:57.316Z,996.20
2018-09-07T00:04:57.427Z,996.23
2018-09-07T00:05:57.365Z,996.22
2018-09-07T00:06:57.385Z,996.21
2018-09-07T00:07:57.397Z,996.20
2018-09-07T00:08:57.425Z,996.19
2018-09-07T00:09:57.440Z,996.20
2018-09-07T00:10:57.470Z,996.16
2018-09-07T00:11:57.478Z,996.17
2018-09-07T00:12:57.497Z,996.15
2018-09-07T00:13:57.520Z,996.14
2018-09-07T00:14:57.538Z,996.15
2018-09-07T00:15:57.559Z,996.20
2018-09-07T00:16:57.582Z,996.24
2018-09-07T00:17:57.643Z,996.22
2018-09-07T00:18:57.618Z,996.22
2018-09-07T00:19:57.638Z,996.22
2018-09-07T00:20:57.676Z,996.20
2018-09-07T00:21:57.691Z,996.19
2018-09-07T00:22:57.697Z,996.20
2018-09-07T00:23:57.720Z,996.24
2018-09-07T00:24:57.765Z,996.18
2018-09-07T00:25:57.771Z,996.22
2018-09-07T00:26:57.785Z,996.21
2018-09-07T00:27:57.810Z,996.21
2018-09-07T00:28:57.818Z,996.21
2018-09-07T00:29:57.838Z,996.24
2018-09-07T00:30:57.863Z,996.18
2018-09-07T00:31:57.900Z,996.24
2018-09-07T00:32:57.902Z,996.26
2018-09-07T00:33:57.921Z,996.28
2018-09-07T00:34:57.974Z,996.30
2018-09-07T00:35:57.957Z,996.25
2018-09-07T00:36:57.985Z,996.30
2018-09-07T00:37:58.001Z,996.26
2018-09-07T00:38:58.034Z,996.30
2018-09-07T00:39:58.041Z,996.26
2018-09-07T00:40:58.068Z,996.26
2018-09-07T00:41:58.077Z,996.28
2018-09-07T00:42:58.124Z,996.27
2018-09-07T00:43:58.122Z,996.27
2018-09-07T00:44:58.140Z,996.26
2018-09-07T00:45:58.164Z,996.30
2018-09-07T00:46:58.179Z,996.27
2018-09-07T00:47:58.222Z,996.24
2018-09-07T00:48:58.236Z,996.29
2018-09-07T00:49:58.239Z,996.23
2018-09-07T00:50:58.263Z,996.29
2018-09-07T00:51:58.285Z,996.31
2018-09-07T00:52:58.308Z,996.31
2018-09-07T00:53:58.323Z,996.32
2018-09-07T00:54:58.366Z,996.35
2018-09-07T00:55:58.367Z,996.35
2018-09-07T00:56:58.388Z,996.38
2018-09-07T00:57:58.440Z,996.36
2018-09-07T00:58:58.433Z,996.37
2018-09-07T00:59:58.439Z,996.38
2018-09-07T01:00:58.464Z,996.36
2018-09-07T01:01:58.487Z,996.42
2018-09-07T01:02:58.513Z,996.43
2018-09-07T01:03:58.532Z,996.41
2018-09-07T01:04:58.576Z,996.46
2018-09-07T01:05:58.584Z,996.44
2018-09-07T01:06:58.588Z,996.48
2018-09-07T01:07:58.602Z,996.44
2018-09-07T01:08:58.627Z,996.44
2018-09-07T01:09:58.650Z,996.42
2018-09-07T01:10:58.666Z,996.45
2018-09-07T01:11:58.699Z,996.38
2018-09-07T01:12:58.700Z,996.50
2018-09-07T01:13:58.723Z,996.50
2018-09-07T01:14:58.744Z,996.51
2018-09-07T01:15:58.764Z,996.53
2018-09-07T01:16:58.787Z,996.52
2018-09-07T01:17:58.801Z,996.56
2018-09-07T01:18:58.823Z,996.55
2018-09-07T01:19:58.849Z,996.57
2018-09-07T01:20:58.866Z,996.56
2018-09-07T01:21:58.899Z,996.54
2018-09-07T01:22:58.902Z,996.56
2018-09-07T01:23:58.921Z,996.56
2018-09-07T01:24:58.969Z,996.54
2018-09-07T01:25:58.961Z,996.55
2018-09-07T01:26:58.984Z,996.57
2018-09-07T01:27:59.025Z,996.55
2018-09-07T01:28:59.043Z,996.55
2018-09-07T01:29:59.042Z,996.54
2018-09-07T01:30:59.069Z,996.53
2018-09-07T01:31:59.080Z,996.56
2018-09-07T01:32:59.122Z,996.56
2018-09-07T01:33:59.139Z,996.55
2018-09-07T01:34:59.153Z,996.52
2018-09-07T01:35:59.163Z,996.55
2018-09-07T01:36:59.181Z,996.55
2018-09-07T01:37:59.211Z,996.53
2018-09-07T01:38:59.274Z,996.54
2018-09-07T01:39:59.270Z,996.51
2018-09-07T01:40:59.288Z,996.55
2018-09-07T01:41:59.283Z,996.54
2018-09-07T01:42:59.319Z,996.56
2018-09-07T01:43:59.319Z,996.59
2018-09-07T01:44:59.359Z,996.58
2018-09-07T01:45:59.361Z,996.62
2018-09-07T01:46:59.383Z,996.61
2018-09-07T01:47:59.417Z,996.63
2018-09-07T01:48:59.446Z,996.62
2018-09-07T01:49:59.439Z,996.57
2018-09-07T01:50:59.461Z,996.54
2018-09-07T01:51:59.483Z,996.54
2018-09-07T01:52:59.502Z,996.55
2018-09-07T01:53:59.524Z,996.56
2018-09-07T01:54:59.537Z,996.58
2018-09-07T01:55:59.574Z,996.57
2018-09-07T01:56:59.588Z,996.55
2018-09-07T01:57:59.601Z,996.51
2018-09-07T01:58:59.625Z,996.54
2018-09-07T01:59:59.665Z,996.56
2018-09-07T02:00:59.662Z,996.53
2018-09-07T02:01:59.681Z,996.51
2018-09-07T02:02:59.700Z,996.52
2018-09-07T02:03:59.727Z,996.54
2018-09-07T02:04:59.740Z,996.53
2018-09-07T02:05:59.764Z,996.52
2018-09-07T02:06:59.795Z,996.51
2018-09-07T02:07:59.805Z,996.50
2018-09-07T02:08:59.819Z,996.48
2018-09-07T02:09:59.870Z,996.47
2018-09-07T02:10:59.871Z,996.49
2018-09-07T02:11:59.887Z,996.46
2018-09-07T02:12:59.904Z,996.47
2018-09-07T02:13:59.924Z,996.47
2018-09-07T02:14:59.986Z,996.46
2018-09-07T02:15:59.968Z,996.46
2018-09-07T02:16:59.981Z,996.49
2018-09-07T02:18:00.025Z,996.48
2018-09-07T02:19:00.036Z,996.51
2018-09-07T02:20:00.054Z,996.51
2018-09-07T02:21:00.086Z,996.52
2018-09-07T02:22:00.096Z,996.50
2018-09-07T02:23:00.111Z,996.53
2018-09-07T02:24:00.120Z,996.54
2018-09-07T02:25:00.150Z,996.56
2018-09-07T02:26:00.177Z,996.58
2018-09-07T02:27:00.184Z,996.60
2018-09-07T02:28:00.211Z,996.59
2018-09-07T02:29:00.220Z,996.61
2018-09-07T02:30:00.245Z,996.64
2018-09-07T02:31:00.267Z,996.62
2018-09-07T02:32:00.283Z,996.64
2018-09-07T02:33:00.329Z,996.62
2018-09-07T02:34:00.327Z,996.59
2018-09-07T02:35:00.342Z,996.56
2018-09-07T02:36:00.362Z,996.60
2018-09-07T02:37:00.383Z,996.58
2018-09-07T02:38:00.409Z,996.60
2018-09-07T02:39:00.431Z,996.59
2018-09-07T02:40:00.451Z,996.59
2018-09-07T02:41:00.474Z,996.60
2018-09-07T02:42:00.489Z,996.59
2018-09-07T02:43:00.512Z,996.58
2018-09-07T02:44:00.521Z,996.61
2018-09-07T02:45:00.554Z,996.60
2018-09-07T02:46:00.564Z,996.58
2018-09-07T02:47:00.591Z,996.61
2018-09-07T02:48:00.624Z,996.57
2018-09-07T02:49:00.631Z,996.59
2018-09-07T02:50:00.646Z,996.60
2018-09-07T02:51:00.666Z,996.60
2018-09-07T02:52:00.684Z,996.61
2018-09-07T02:53:00.714Z,996.63
2018-09-07T02:54:00.738Z,996.63
2018-09-07T02:55:00.745Z,996.62
2018-09-07T02:56:00.779Z,996.63
2018-09-07T02:57:00.791Z,996.62
2018-09-07T02:58:00.806Z,996.60
2018-09-07T02:59:00.827Z,996.60
2018-09-07T03:00:00.847Z,996.66
2018-09-07T03:01:00.868Z,996.59
2018-09-07T03:02:00.888Z,996.59
2018-09-07T03:03:00.921Z,996.60
2018-09-07T03:04:00.928Z,996.61
2018-09-07T03:05:00.961Z,996.61
2018-09-07T03:06:00.972Z,996.63
2018-09-07T03:07:00.989Z,996.65
2018-09-07T03:08:01.029Z,996.64
2018-09-07T03:09:01.041Z,996.61
2018-09-07T03:10:01.052Z,996.66
2018-09-07T03:11:01.078Z,996.64
2018-09-07T03:12:01.090Z,996.67
2018-09-07T03:13:01.107Z,996.64
2018-09-07T03:14:01.127Z,996.62
2018-09-07T03:15:01.159Z,996.60
2018-09-07T03:16:01.173Z,996.63
2018-09-07T03:17:01.194Z,996.63
2018-09-07T03:18:01.216Z,996.64
2018-09-07T03:19:01.231Z,996.64
2018-09-07T03:20:01.254Z,996.65
2018-09-07T03:21:01.270Z,996.62
2018-09-07T03:22:01.288Z,996.65
2018-09-07T03:23:01.310Z,996.67
2018-09-07T03:24:01.328Z,996.63
2018-09-07T03:25:01.351Z,996.64
2018-09-07T03:26:01.374Z,996.65
2018-09-07T03:27:01.390Z,996.66
2018-09-07T03:28:01.414Z,996.66
2018-09-07T03:29:01.450Z,996.66
2018-09-07T03:30:01.471Z,996.68
2018-09-07T03:31:01.485Z,996.66
2018-09-07T03:32:01.519Z,996.66
2018-09-07T03:33:01.513Z,996.67
2018-09-07T03:34:01.533Z,996.69
2018-09-07T03:35:01.549Z,996.71
2018-09-07T03:36:01.586Z,996.69
2018-09-07T03:37:01.588Z,996.67
2018-09-07T03:38:01.611Z,996.67
2018-09-07T03:39:01.632Z,996.66
2018-09-07T03:40:01.652Z,996.71
2018-09-07T03:41:01.693Z,996.71
2018-09-07T03:42:01.713Z,996.73
2018-09-07T03:43:01.714Z,996.73
2018-09-07T03:44:01.739Z,996.78
2018-09-07T03:45:01.755Z,996.76
2018-09-07T03:46:01.790Z,996.76
2018-09-07T03:47:01.814Z,996.72
2018-09-07T03:48:01.807Z,996.73
2018-09-07T03:49:01.834Z,996.74
2018-09-07T03:50:01.845Z,996.75
2018-09-07T03:51:01.873Z,996.76
2018-09-07T03:52:01.883Z,996.83
2018-09-07T03:53:01.909Z,996.83
2018-09-07T03:54:01.936Z,996.82
2018-09-07T03:55:01.949Z,996.83
2018-09-07T03:56:01.970Z,996.83
2018-09-07T03:57:01.995Z,996.78
2018-09-07T03:58:02.011Z,996.82
2018-09-07T03:59:02.039Z,996.82
2018-09-07T04:00:02.059Z,996.83
2018-09-07T04:01:02.070Z,996.84
2018-09-07T04:02:02.094Z,996.82
2018-09-07T04:03:02.116Z,996.83
2018-09-07T04:04:02.140Z,996.81
2018-09-07T04:05:02.157Z,996.81
2018-09-07T04:06:02.183Z,996.84
2018-09-07T04:07:02.199Z,996.85
2018-09-07T04:08:02.208Z,996.82
2018-09-07T04:09:02.240Z,996.83
2018-09-07T04:10:02.267Z,996.84
2018-09-07T04:11:02.302Z,996.85
2018-09-07T04:12:02.283Z,996.85
2018-09-07T04:13:02.316Z,996.86
2018-09-07T04:14:02.336Z,996.85
2018-09-07T04:15:02.347Z,996.81
2018-09-07T04:16:02.373Z,996.84
2018-09-07T04:17:02.388Z,996.79
2018-09-07T04:18:02.407Z,996.80
2018-09-07T04:19:02.425Z,996.83
2018-09-07T04:20:02.453Z,996.79
2018-09-07T04:21:02.467Z,996.83
2018-09-07T04:22:02.506Z,996.84
2018-09-07T04:23:02.513Z,996.85
2018-09-07T04:24:02.527Z,996.84
2018-09-07T04:25:02.548Z,996.84
2018-09-07T04:26:02.564Z,996.79
2018-09-07T04:27:02.593Z,996.79
2018-09-07T04:28:02.606Z,996.79
2018-09-07T04:29:02.632Z,996.78
2018-09-07T04:30:02.654Z,996.74
2018-09-07T04:31:02.668Z,996.74
2018-09-07T04:32:02.698Z,996.69
2018-09-07T04:33:02.712Z,996.69
2018-09-07T04:34:02.749Z,996.70
2018-09-07T04:35:02.754Z,996.67
2018-09-07T04:36:02.779Z,996.68
2018-09-07T04:37:02.800Z,996.75
2018-09-07T04:38:02.812Z,996.76
2018-09-07T04:39:02.834Z,996.81
2018-09-07T04:40:02.849Z,996.82
2018-09-07T04:41:02.925Z,996.84
2018-09-07T04:42:02.884Z,996.95
2018-09-07T04:43:02.912Z,996.86
2018-09-07T04:44:02.933Z,996.88
2018-09-07T04:45:02.968Z,996.91
2018-09-07T04:46:02.985Z,996.89
2018-09-07T04:47:02.995Z,996.90
2018-09-07T04:48:03.108Z,996.90
2018-09-07T04:49:03.030Z,996.91
2018-09-07T04:50:03.051Z,996.92
2018-09-07T04:51:03.065Z,996.96
2018-09-07T04:52:03.090Z,996.93
2018-09-07T04:53:03.117Z,996.94
2018-09-07T04:54:03.123Z,996.92
2018-09-07T04:55:03.141Z,996.93
2018-09-07T04:56:03.172Z,996.96
2018-09-07T04:57:03.188Z,996.97
2018-09-07T04:58:03.208Z,997.03
2018-09-07T04:59:03.227Z,997.04
2018-09-07T05:00:03.243Z,997.06
2018-09-07T05:01:03.266Z,997.06
2018-09-07T05:02:03.295Z,997.07
2018-09-07T05:03:03.303Z,997.12
2018-09-07T05:04:03.337Z,997.12
2018-09-07T05:05:03.347Z,997.16
2018-09-07T05:06:03.367Z,997.18
2018-09-07T05:07:03.390Z,997.20
2018-09-07T05:08:03.402Z,997.22
2018-09-07T05:09:03.436Z,997.18
2018-09-07T05:10:03.452Z,997.18
2018-09-07T05:11:03.477Z,997.20
2018-09-07T05:12:03.483Z,997.22
2018-09-07T05:13:03.507Z,997.30
2018-09-07T05:14:03.528Z,997.24
2018-09-07T05:15:03.546Z,997.20
2018-09-07T05:16:03.577Z,997.21
2018-09-07T05:17:03.581Z,997.22
2018-09-07T05:18:03.602Z,997.20
2018-09-07T05:19:03.620Z,997.24
2018-09-07T05:20:03.639Z,997.26
2018-09-07T05:21:03.660Z,997.30
2018-09-07T05:22:03.752Z,997.35
2018-09-07T05:23:03.694Z,997.35
2018-09-07T05:24:03.713Z,997.34
2018-09-07T05:25:03.735Z,997.34
2018-09-07T05:26:03.758Z,997.39
2018-09-07T05:27:03.798Z,997.38
2018-09-07T05:28:03.805Z,997.47
2018-09-07T05:29:03.823Z,997.43
2018-09-07T05:30:03.834Z,997.41
2018-09-07T05:31:03.894Z,997.37
2018-09-07T05:32:03.955Z,997.42
2018-09-07T05:33:03.897Z,997.55
2018-09-07T05:34:03.916Z,997.56
2018-09-07T05:35:03.934Z,997.58
2018-09-07T05:36:03.959Z,997.60
2018-09-07T05:37:03.974Z,997.54
2018-09-07T05:38:04.012Z,997.48
2018-09-07T05:39:04.046Z,997.49
2018-09-07T05:40:04.038Z,997.50
2018-09-07T05:41:04.063Z,997.49
2018-09-07T05:42:04.133Z,997.54
2018-09-07T05:43:04.098Z,997.57
2018-09-07T05:44:04.120Z,997.62
2018-09-07T05:45:04.137Z,997.72
2018-09-07T05:46:04.169Z,997.92
2018-09-07T05:47:04.192Z,997.95
2018-09-07T05:48:04.204Z,998.02
2018-09-07T05:49:04.229Z,998.04
2018-09-07T05:50:04.247Z,998.05
2018-09-07T05:51:04.267Z,998.11
2018-09-07T05:52:04.288Z,998.22
2018-09-07T05:53:04.307Z,998.20
2018-09-07T05:54:04.331Z,998.30
2018-09-07T05:55:04.357Z,998.34
2018-09-07T05:56:04.375Z,998.35
2018-09-07T05:57:04.395Z,998.41
2018-09-07T05:58:04.438Z,998.41
2018-09-07T05:59:04.450Z,998.40
2018-09-07T06:00:04.470Z,998.30
2018-09-07T06:01:04.485Z,998.32
2018-09-07T06:02:04.504Z,998.33
2018-09-07T06:03:04.526Z,998.42
2018-09-07T06:04:04.551Z,998.54
2018-09-07T06:05:04.596Z,998.76
2018-09-07T06:06:04.600Z,998.81
2018-09-07T06:07:04.633Z,998.78
2018-09-07T06:08:04.654Z,998.73
2018-09-07T06:09:04.669Z,998.79
2018-09-07T06:10:04.690Z,998.90
2018-09-07T06:11:04.715Z,998.92
2018-09-07T06:12:04.741Z,998.96
2018-09-07T06:13:04.764Z,999.02
2018-09-07T06:14:04.806Z,999.11
2018-09-07T06:15:04.851Z,999.19
2018-09-07T06:16:04.834Z,999.22
2018-09-07T06:17:04.861Z,999.26
2018-09-07T06:18:04.886Z,999.28
2018-09-07T06:19:04.923Z,999.45
2018-09-07T06:20:04.948Z,999.59
2018-09-07T06:21:04.958Z,999.87
2018-09-07T06:22:04.985Z,999.78
2018-09-07T06:23:05.021Z,999.74
2018-09-07T06:24:05.044Z,999.86
2018-09-07T06:25:05.063Z,999.88
2018-09-07T06:26:05.079Z,999.22
2018-09-07T06:27:05.108Z,998.71
2018-09-07T06:28:05.154Z,998.75
2018-09-07T06:29:05.174Z,998.53
2018-09-07T06:30:05.178Z,998.55
2018-09-07T06:31:05.217Z,998.85
2018-09-07T06:32:05.236Z,1000.54
2018-09-07T06:33:05.359Z,1000.55
2018-09-07T06:34:05.276Z,1000.45
2018-09-07T06:35:05.311Z,998.79
2018-09-07T06:36:05.326Z,998.62
2018-09-07T06:37:05.362Z,998.86
2018-09-07T06:38:05.382Z,999.39
2018-09-07T06:39:05.525Z,1000.32
2018-09-07T06:40:05.435Z,1000.26
2018-09-07T06:41:05.448Z,999.04
2018-09-07T06:42:05.479Z,999.69
2018-09-07T06:43:05.522Z,998.45
2018-09-07T06:44:05.558Z,998.33
2018-09-07T06:45:05.543Z,998.89
2018-09-07T06:46:05.576Z,998.28
2018-09-07T06:47:05.659Z,998.54
2018-09-07T06:48:05.632Z,998.57
2018-09-07T06:49:05.648Z,998.53
2018-09-07T06:50:05.691Z,998.62
2018-09-07T06:51:05.691Z,998.55
2018-09-07T06:52:05.742Z,998.18
2018-09-07T06:53:05.747Z,997.99
2018-09-07T06:54:05.775Z,997.91
2018-09-07T06:55:05.790Z,997.96
2018-09-07T06:56:05.821Z,998.00
2018-09-07T06:57:05.838Z,997.97
2018-09-07T06:58:05.865Z,998.01
2018-09-07T06:59:05.875Z,998.20
2018-09-07T07:00:05.905Z,998.32
2018-09-07T07:01:05.929Z,998.41
2018-09-07T07:02:05.964Z,998.36
2018-09-07T07:03:05.987Z,998.03
2018-09-07T07:04:06.005Z,997.93
2018-09-07T07:05:06.038Z,997.91
2018-09-07T07:06:06.052Z,997.88
2018-09-07T07:07:06.062Z,997.87
2018-09-07T07:08:06.151Z,997.94
2018-09-07T07:09:06.104Z,997.93
2018-09-07T07:10:06.124Z,997.94
2018-09-07T07:11:06.147Z,997.95
2018-09-07T07:12:06.175Z,998.02
2018-09-07T07:13:06.190Z,998.02
2018-09-07T07:14:06.218Z,998.02
2018-09-07T07:15:06.242Z,998.03
2018-09-07T07:16:06.258Z,998.07
2018-09-07T07:17:06.283Z,998.08
2018-09-07T07:18:06.309Z,998.10
2018-09-07T07:19:06.323Z,998.08
2018-09-07T07:20:06.364Z,998.09
2018-09-07T07:21:06.373Z,998.27
2018-09-07T07:22:06.400Z,998.36
2018-09-07T07:23:06.423Z,998.23
2018-09-07T07:24:06.465Z,998.41
2018-09-07T07:25:06.456Z,998.38
2018-09-07T07:26:06.480Z,998.51
2018-09-07T07:27:06.523Z,998.64
2018-09-07T07:28:06.523Z,998.79
2018-09-07T07:29:06.583Z,998.76
2018-09-07T07:30:06.565Z,998.62
2018-09-07T07:31:06.591Z,998.63
2018-09-07T07:32:06.609Z,998.71
2018-09-07T07:33:06.658Z,999.44
2018-09-07T07:34:06.664Z,1000.27
2018-09-07T07:35:06.677Z,998.55
2018-09-07T07:36:06.699Z,998.56
2018-09-07T07:37:06.750Z,998.51
2018-09-07T07:38:06.743Z,998.57
2018-09-07T07:39:06.765Z,998.71
2018-09-07T07:40:06.785Z,998.65
2018-09-07T07:41:06.809Z,998.45
2018-09-07T07:42:06.835Z,998.53
2018-09-07T07:43:06.856Z,998.61
2018-09-07T07:44:06.870Z,1001.18
2018-09-07T07:45:06.891Z,999.84
2018-09-07T07:46:06.919Z,998.56
2018-09-07T07:47:06.951Z,998.53
2018-09-07T07:48:07.112Z,998.84
2018-09-07T07:49:06.981Z,1004.31
2018-09-07T07:50:07.006Z,1002.77
2018-09-07T07:51:07.033Z,1002.35
2018-09-07T07:52:07.058Z,1000.15
2018-09-07T07:53:07.073Z,999.53
2018-09-07T07:54:07.116Z,999.83
2018-09-07T07:55:07.115Z,999.67
2018-09-07T07:56:07.155Z,999.93
2018-09-07T07:57:07.169Z,999.83
2018-09-07T07:58:07.206Z,999.50
2018-09-07T07:59:07.215Z,999.29
2018-09-07T08:00:07.235Z,998.99
2018-09-07T08:01:07.258Z,999.53
2018-09-07T08:02:07.277Z,1000.07
2018-09-07T08:03:07.304Z,998.77
2018-09-07T08:04:07.331Z,998.55
2018-09-07T08:05:07.377Z,999.07
2018-09-07T08:06:07.384Z,998.93
2018-09-07T08:07:07.399Z,998.51
2018-09-07T08:08:07.420Z,998.29
2018-09-07T08:09:07.447Z,998.19
2018-09-07T08:10:07.472Z,998.10
2018-09-07T08:11:07.490Z,998.04
2018-09-07T08:12:07.510Z,998.02
2018-09-07T08:13:07.541Z,998.01
2018-09-07T08:14:07.558Z,998.03
2018-09-07T08:15:07.608Z,998.00
2018-09-07T08:16:07.674Z,997.98
2018-09-07T08:17:07.639Z,997.95
2018-09-07T08:18:07.654Z,997.97
2018-09-07T08:19:07.700Z,998.00
2018-09-07T08:20:07.697Z,997.95
2018-09-07T08:21:07.723Z,997.93
2018-09-07T08:22:07.743Z,997.94
2018-09-07T08:23:07.763Z,998.00
2018-09-07T08:24:07.792Z,997.97
2018-09-07T08:25:07.816Z,997.98
2018-09-07T08:26:07.831Z,998.02
2018-09-07T08:27:07.859Z,998.03
2018-09-07T08:28:07.876Z,998.08
2018-09-07T08:29:07.893Z,998.04
2018-09-07T08:30:07.932Z,998.05
2018-09-07T08:31:07.947Z,998.09
2018-09-07T08:32:07.963Z,998.13
2018-09-07T08:33:08.046Z,998.46
2018-09-07T08:34:08.019Z,998.62
2018-09-07T08:35:08.034Z,999.08
2018-09-07T08:36:08.046Z,999.13
2018-09-07T08:37:08.072Z,999.30
2018-09-07T08:38:08.091Z,998.96
2018-09-07T08:39:08.112Z,998.54
2018-09-07T08:40:08.152Z,999.02
2018-09-07T08:41:08.180Z,999.03
2018-09-07T08:42:08.177Z,998.86
2018-09-07T08:43:08.220Z,998.69
2018-09-07T08:44:08.230Z,998.51
2018-09-07T08:45:08.251Z,998.56
2018-09-07T08:46:08.265Z,998.77
2018-09-07T08:47:08.287Z,998.80
2018-09-07T08:48:08.315Z,998.89
2018-09-07T08:49:08.333Z,998.77
2018-09-07T08:50:08.354Z,998.51
2018-09-07T08:51:08.376Z,998.44
2018-09-07T08:52:08.418Z,998.52
2018-09-07T08:53:08.423Z,998.67
2018-09-07T08:54:08.450Z,998.80
2018-09-07T08:55:08.530Z,998.81
2018-09-07T08:56:08.492Z,998.89
2018-09-07T08:57:08.519Z,998.86
2018-09-07T08:58:08.563Z,999.02
2018-09-07T08:59:08.555Z,998.77
2018-09-07T09:00:08.603Z,998.71
2018-09-07T09:01:08.600Z,998.65
2018-09-07T09:02:08.626Z,998.90
2018-09-07T09:03:08.647Z,998.98
2018-09-07T09:04:08.683Z,999.02
2018-09-07T09:05:08.691Z,998.99
2018-09-07T09:06:08.718Z,998.97
2018-09-07T09:07:08.734Z,998.97
2018-09-07T09:08:08.762Z,998.86
2018-09-07T09:09:08.781Z,998.76
2018-09-07T09:10:08.804Z,998.59
2018-09-07T09:11:08.836Z,998.35
2018-09-07T09:12:08.852Z,998.46
2018-09-07T09:13:08.872Z,998.44
2018-09-07T09:14:08.902Z,998.44
2018-09-07T09:15:08.931Z,998.39
2018-09-07T09:16:08.946Z,998.37
2018-09-07T09:17:08.969Z,998.26
2018-09-07T09:18:08.988Z,998.22
2018-09-07T09:19:09.013Z,998.21
2018-09-07T09:20:09.033Z,998.26
2018-09-07T09:21:09.059Z,998.25
2018-09-07T09:22:09.091Z,998.66
2018-09-07T09:23:09.101Z,998.82
2018-09-07T09:24:09.148Z,998.82
2018-09-07T09:25:09.157Z,998.76
2018-09-07T09:26:09.165Z,998.66
2018-09-07T09:27:09.186Z,998.47
2018-09-07T09:28:09.214Z,998.57
2018-09-07T09:29:09.249Z,998.65
2018-09-07T09:30:09.257Z,998.56
2018-09-07T09:31:09.300Z,998.43
2018-09-07T09:32:09.315Z,998.39
2018-09-07T09:33:09.341Z,998.34
2018-09-07T09:34:09.341Z,998.39
2018-09-07T09:35:09.367Z,998.32
2018-09-07T09:36:09.393Z,998.34
2018-09-07T09:37:09.428Z,998.50
2018-09-07T09:38:09.446Z,998.58
2018-09-07T09:39:09.457Z,998.54
2018-09-07T09:40:09.485Z,998.56
2018-09-07T09:41:09.500Z,998.65
2018-09-07T09:42:09.531Z,998.89
2018-09-07T09:43:09.572Z,998.97
2018-09-07T09:44:09.577Z,998.89
2018-09-07T09:45:09.596Z,998.79
2018-09-07T09:46:09.618Z,998.81
2018-09-07T09:47:09.662Z,998.86
2018-09-07T09:48:09.660Z,998.87
2018-09-07T09:49:09.685Z,998.92
2018-09-07T09:50:09.710Z,998.94
2018-09-07T09:51:09.733Z,998.86
2018-09-07T09:52:09.755Z,998.90
2018-09-07T09:53:09.826Z,998.87
2018-09-07T09:54:09.807Z,998.92
2018-09-07T09:55:09.829Z,998.87
2018-09-07T09:56:09.848Z,998.76
2018-09-07T09:57:09.862Z,998.80
2018-09-07T09:58:09.890Z,998.83
2018-09-07T09:59:09.918Z,998.83
2018-09-07T10:00:09.947Z,998.63
2018-09-07T10:01:09.966Z,998.47
2018-09-07T10:02:09.990Z,998.44
2018-09-07T10:03:10.007Z,998.31
2018-09-07T10:04:10.055Z,998.35
2018-09-07T10:05:10.077Z,998.23
2018-09-07T10:06:10.074Z,998.26
2018-09-07T10:07:10.117Z,998.18
2018-09-07T10:08:10.126Z,998.34
2018-09-07T10:09:10.143Z,998.46
2018-09-07T10:10:10.173Z,998.55
2018-09-07T10:11:10.188Z,998.57
2018-09-07T10:12:10.232Z,998.78
2018-09-07T10:13:10.241Z,998.81
2018-09-07T10:14:10.272Z,998.68
2018-09-07T10:15:10.275Z,998.60
2018-09-07T10:16:10.301Z,998.60
2018-09-07T10:17:10.326Z,998.75
2018-09-07T10:18:10.352Z,998.77
2018-09-07T10:19:10.485Z,998.77
2018-09-07T10:20:10.393Z,998.69
2018-09-07T10:21:10.425Z,998.62
2018-09-07T10:22:10.441Z,998.56
2018-09-07T10:23:10.458Z,998.49
2018-09-07T10:24:10.481Z,998.52
2018-09-07T10:25:10.505Z,998.53
2018-09-07T10:26:10.547Z,998.54
2018-09-07T10:27:10.573Z,998.55
2018-09-07T10:28:10.584Z,998.63
2018-09-07T10:29:10.604Z,998.69
2018-09-07T10:30:10.619Z,998.56
2018-09-07T10:31:10.658Z,998.59
2018-09-07T10:32:10.686Z,998.54
2018-09-07T10:33:10.692Z,998.57
2018-09-07T10:34:10.724Z,998.52
2018-09-07T10:35:10.749Z,998.60
2018-09-07T10:36:10.761Z,998.50
2018-09-07T10:37:10.787Z,998.41
2018-09-07T10:38:10.811Z,998.43
2018-09-07T10:39:10.823Z,998.48
2018-09-07T10:40:10.857Z,998.49
2018-09-07T10:41:10.871Z,998.44
2018-09-07T10:42:10.896Z,998.35
2018-09-07T10:43:10.917Z,998.43
2018-09-07T10:44:10.975Z,998.26
2018-09-07T10:45:10.995Z,998.36
2018-09-07T10:46:10.987Z,998.32
2018-09-07T10:47:11.012Z,998.41
2018-09-07T10:48:11.040Z,998.57
2018-09-07T10:49:11.054Z,998.63
2018-09-07T10:50:11.086Z,998.59
2018-09-07T10:51:11.105Z,998.46
2018-09-07T10:52:11.122Z,998.34
2018-09-07T10:53:11.212Z,998.21
2018-09-07T10:54:11.179Z,998.39
2018-09-07T10:55:11.196Z,998.49
2018-09-07T10:56:11.232Z,998.53
2018-09-07T10:57:11.243Z,998.50
2018-09-07T10:58:11.259Z,998.55
2018-09-07T10:59:11.350Z,998.63
2018-09-07T11:00:11.306Z,998.71
2018-09-07T11:01:11.334Z,998.66
2018-09-07T11:02:11.352Z,998.65
2018-09-07T11:03:11.388Z,998.62
2018-09-07T11:04:11.396Z,998.62
2018-09-07T11:05:11.421Z,998.66
2018-09-07T11:06:11.452Z,998.65
2018-09-07T11:07:11.466Z,998.61
2018-09-07T11:08:11.496Z,998.57
2018-09-07T11:09:11.516Z,998.53
2018-09-07T11:10:11.539Z,998.59
2018-09-07T11:11:11.560Z,998.60
2018-09-07T11:12:11.585Z,998.51
2018-09-07T11:13:11.606Z,998.46
2018-09-07T11:14:11.634Z,998.53
2018-09-07T11:15:11.670Z,998.50
2018-09-07T11:16:11.680Z,998.48
2018-09-07T11:17:11.699Z,998.38
2018-09-07T11:18:11.729Z,998.44
2018-09-07T11:19:11.750Z,998.38
2018-09-07T11:20:11.771Z,998.25
2018-09-07T11:21:11.791Z,998.29
2018-09-07T11:22:11.903Z,998.26
2018-09-07T11:23:11.843Z,998.18
2018-09-07T11:24:11.891Z,998.16
2018-09-07T11:25:11.892Z,998.13
2018-09-07T11:26:11.905Z,998.21
2018-09-07T11:27:11.936Z,998.15
2018-09-07T11:28:11.948Z,998.19
2018-09-07T11:29:11.973Z,998.16
2018-09-07T11:30:12.007Z,998.20
2018-09-07T11:31:12.025Z,998.23
2018-09-07T11:32:12.049Z,998.21
2018-09-07T11:33:12.060Z,998.14
2018-09-07T11:34:12.083Z,998.12
2018-09-07T11:35:12.110Z,998.14
2018-09-07T11:36:12.128Z,998.13
2018-09-07T11:37:12.167Z,998.15
2018-09-07T11:38:12.179Z,998.14
2018-09-07T11:39:12.197Z,998.12
2018-09-07T11:40:12.221Z,998.14
2018-09-07T11:41:12.312Z,998.20
2018-09-07T11:42:12.262Z,998.19
2018-09-07T11:43:12.282Z,998.18
2018-09-07T11:44:12.303Z,998.14
2018-09-07T11:45:12.326Z,998.15
2018-09-07T11:46:12.371Z,998.21
2018-09-07T11:47:12.369Z,998.26
2018-09-07T11:48:12.406Z,998.21
2018-09-07T11:49:12.464Z,998.27
2018-09-07T11:50:12.434Z,998.28
2018-09-07T11:51:12.460Z,998.26
2018-09-07T11:52:12.483Z,998.22
2018-09-07T11:53:12.518Z,998.26
2018-09-07T11:54:12.522Z,998.24
2018-09-07T11:55:12.541Z,998.29
2018-09-07T11:56:12.576Z,998.30
2018-09-07T11:57:12.597Z,998.41
2018-09-07T11:58:12.723Z,998.33
2018-09-07T11:59:12.643Z,998.33
2018-09-07T12:00:12.654Z,998.34
2018-09-07T12:01:12.671Z,998.40
2018-09-07T12:02:12.817Z,998.41
2018-09-07T12:03:12.711Z,998.42
2018-09-07T12:04:12.838Z,998.44
2018-09-07T12:05:12.776Z,998.46
2018-09-07T12:06:12.776Z,998.54
2018-09-07T12:07:12.797Z,998.46
2018-09-07T12:08:12.821Z,998.54
2018-09-07T12:09:12.856Z,998.52
2018-09-07T12:10:12.862Z,998.50
2018-09-07T12:11:12.898Z,998.55
2018-09-07T12:12:12.965Z,998.55
2018-09-07T12:13:13.067Z,998.59
2018-09-07T12:14:12.957Z,998.60
2018-09-07T12:15:12.987Z,998.59
2018-09-07T12:16:12.999Z,998.69
2018-09-07T12:17:13.025Z,998.71
2018-09-07T12:18:13.035Z,998.83
2018-09-07T12:19:13.051Z,998.89
2018-09-07T12:20:13.076Z,998.94
2018-09-07T12:21:13.128Z,999.04
2018-09-07T12:22:13.116Z,999.14
2018-09-07T12:23:13.136Z,999.12
2018-09-07T12:24:13.158Z,999.18
2018-09-07T12:25:13.179Z,999.10
2018-09-07T12:26:13.200Z,999.08
2018-09-07T12:27:13.222Z,999.09
2018-09-07T12:28:13.301Z,998.91
2018-09-07T12:29:13.281Z,999.01